createdAt,value
2023-04-08T00:01:54.340Z,33.30
2023-04-08T00:11:57.698Z,43.20
2023-04-08T00:22:02.033Z,52.42
2023-04-08T00:32:05.191Z,34.47
2023-04-08T00:42:09.854Z,42.85
2023-04-08T00:52:13.404Z,41.67
2023-04-08T01:02:26.308Z,49.00
2023-04-08T01:12:32.166Z,57.75
2023-04-08T01:22:47.450Z,61.05
2023-04-08T01:32:55.737Z,76.20
2023-04-08T01:43:03.087Z,63.42
2023-04-08T01:53:11.579Z,62.78
2023-04-08T02:03:18.800Z,54.03
2023-04-08T02:13:24.164Z,71.82
2023-04-08T02:23:30.122Z,53.27
2023-04-08T02:33:36.850Z,82.72
2023-04-08T02:43:39.832Z,83.72
2023-04-08T02:53:44.310Z,79.57
2023-04-08T03:03:47.531Z,79.47
2023-04-08T03:13:52.528Z,78.18
2023-04-08T03:33:59.702Z,103.95
2023-04-08T03:44:02.743Z,121.90
2023-04-08T03:54:07.842Z,114.75
2023-04-08T04:04:11.317Z,127.00
2023-04-08T04:14:15.874Z,137.32
2023-04-08T04:24:18.825Z,131.03
2023-04-08T04:34:23.285Z,111.95
2023-04-08T04:44:26.428Z,138.57
2023-04-08T04:54:30.862Z,127.20
2023-04-08T05:04:33.900Z,121.60
2023-04-08T05:14:38.254Z,99.28
2023-04-08T05:24:41.326Z,81.10
2023-04-08T05:34:45.738Z,90.10
2023-04-08T05:44:48.707Z,82.93
2023-04-08T05:54:53.190Z,101.03
2023-04-08T06:04:56.363Z,98.23
2023-04-08T06:15:00.872Z,84.88
2023-04-08T06:25:04.181Z,77.60
2023-04-08T06:35:09.571Z,36.83
2023-04-08T06:45:12.924Z,45.30
2023-04-08T06:55:17.561Z,42.72
2023-04-08T07:05:20.641Z,40.17
2023-04-08T07:15:25.497Z,34.40
2023-04-08T07:25:28.532Z,39.90
2023-04-08T07:35:33.186Z,42.05
2023-04-08T07:45:36.333Z,40.33
2023-04-08T07:55:42.492Z,40.10
2023-04-08T08:05:45.850Z,39.40
2023-04-08T08:15:53.675Z,40.55
2023-04-08T08:26:01.190Z,38.08
2023-04-08T08:36:07.356Z,38.45
2023-04-08T08:46:12.789Z,41.92
2023-04-08T08:56:18.934Z,37.70
2023-04-08T09:06:22.173Z,39.65
2023-04-08T09:16:26.981Z,44.75
2023-04-08T09:36:34.150Z,52.83
2023-04-08T09:46:42.151Z,47.53
2023-04-08T09:56:57.216Z,37.45
2023-04-08T10:07:05.741Z,41.47
2023-04-08T10:17:28.807Z,33.15
2023-04-08T10:27:41.737Z,33.55
2023-04-08T10:37:46.118Z,33.50
2023-04-08T10:47:49.308Z,32.97
2023-04-08T10:57:55.868Z,34.20
2023-04-08T11:08:01.558Z,32.10
2023-04-08T11:18:06.590Z,24.17
2023-04-08T11:28:10.964Z,34.40
2023-04-08T11:38:15.370Z,35.42
2023-04-08T11:48:18.566Z,30.52
2023-04-08T11:58:22.971Z,28.98
2023-04-08T12:08:26.285Z,27.50
2023-04-08T12:18:30.798Z,27.58
2023-04-08T12:28:34.714Z,27.98
2023-04-08T12:38:39.130Z,27.20
2023-04-08T12:48:42.507Z,27.52
2023-04-08T12:58:47.112Z,21.95
2023-04-08T13:18:54.782Z,19.70
2023-04-08T13:28:58.340Z,21.60
2023-04-08T13:39:03.036Z,25.27
2023-04-08T13:59:14.281Z,22.00
2023-04-08T14:09:26.092Z,26.52
2023-04-08T14:19:32.573Z,26.30
2023-04-08T14:29:44.295Z,22.70
2023-04-08T14:39:48.865Z,25.17
2023-04-08T14:49:59.343Z,18.98
2023-04-08T15:00:04.597Z,22.33
2023-04-08T15:10:15.157Z,15.63
2023-04-08T15:20:20.272Z,15.93
2023-04-08T15:30:35.220Z,15.82
2023-04-08T15:40:39.683Z,17.00
2023-04-08T15:50:52.169Z,18.63
2023-04-08T16:00:57.803Z,20.23
2023-04-08T16:11:02.727Z,18.63
2023-04-08T16:21:08.331Z,18.58
2023-04-08T16:31:12.333Z,23.92
2023-04-08T16:41:19.796Z,15.57
2023-04-08T16:51:33.285Z,13.40
2023-04-08T17:01:40.631Z,14.77
2023-04-08T17:11:52.407Z,17.60
2023-04-08T17:22:00.460Z,15.07
2023-04-08T17:32:09.341Z,14.35
2023-04-08T17:42:17.281Z,15.65
2023-04-08T17:52:25.115Z,19.23
2023-04-08T18:02:32.728Z,19.48
2023-04-08T18:12:46.106Z,20.25
2023-04-08T18:22:50.507Z,15.95
2023-04-08T18:32:53.518Z,18.90
2023-04-08T18:43:02.002Z,21.58
2023-04-08T18:53:05.292Z,19.55
2023-04-08T19:03:10.364Z,21.90
2023-04-08T19:13:13.627Z,26.73
2023-04-08T19:23:18.967Z,27.70
2023-04-08T19:33:21.961Z,32.85
2023-04-08T19:43:26.397Z,32.65
2023-04-08T19:53:29.349Z,21.83
2023-04-08T20:03:33.876Z,30.52
2023-04-08T20:13:37.165Z,30.17
2023-04-08T20:23:44.373Z,29.20
2023-04-08T20:33:47.505Z,30.30
2023-04-08T20:43:53.352Z,34.67
2023-04-08T20:53:57.080Z,33.65
2023-04-08T21:04:01.597Z,27.13
2023-04-08T21:14:04.746Z,28.63
2023-04-08T21:24:09.909Z,32.53
2023-04-08T21:34:13.323Z,32.75
2023-04-08T21:44:17.733Z,31.75
2023-04-08T21:54:20.770Z,34.23
2023-04-08T22:04:25.155Z,28.75
2023-04-08T22:14:28.163Z,28.40
2023-04-08T22:24:32.519Z,30.50
2023-04-08T22:34:36.788Z,29.63
2023-04-08T22:44:41.082Z,31.50
2023-04-08T22:54:44.032Z,31.43
2023-04-08T23:04:48.421Z,40.55
2023-04-08T23:14:51.463Z,43.97
2023-04-08T23:24:55.782Z,46.25
2023-04-08T23:34:58.761Z,54.20
2023-04-08T23:45:03.145Z,75.18
2023-04-08T23:55:06.971Z,86.63
